sensor_id;sensor_type;location;lat;lon;timestamp;temperature;humidity
23405;DHT22;11875;49.356;2.718;2022-11-20T00:00:40;9.30;99.90
23405;DHT22;11875;49.356;2.718;2022-11-20T00:03:06;9.40;99.90
23405;DHT22;11875;49.356;2.718;2022-11-20T00:05:34;9.50;99.90
23405;DHT22;11875;49.356;2.718;2022-11-20T00:08:00;9.70;99.90
23405;DHT22;11875;49.356;2.718;2022-11-20T00:10:26;9.70;99.90
23405;DHT22;11875;49.356;2.718;2022-11-20T00:12:51;9.60;99.90
23405;DHT22;11875;49.356;2.718;2022-11-20T00:15:17;9.50;99.90
23405;DHT22;11875;49.356;2.718;2022-11-20T00:17:43;9.70;99.90
23405;DHT22;11875;49.356;2.718;2022-11-20T00:20:09;9.70;99.90
23405;DHT22;11875;49.356;2.718;2022-11-20T00:22:34;9.80;99.90
23405;DHT22;11875;49.356;2.718;2022-11-20T00:25:00;9.90;99.90
23405;DHT22;11875;49.356;2.718;2022-11-20T00:27:26;10.00;99.90
23405;DHT22;11875;49.356;2.718;2022-11-20T00:29:51;10.10;99.90
23405;DHT22;11875;49.356;2.718;2022-11-20T00:32:17;10.20;99.90
23405;DHT22;11875;49.356;2.718;2022-11-20T00:34:42;10.20;99.90
23405;DHT22;11875;49.356;2.718;2022-11-20T00:37:08;10.10;99.90
23405;DHT22;11875;49.356;2.718;2022-11-20T00:39:33;10.00;99.90
23405;DHT22;11875;49.356;2.718;2022-11-20T00:41:59;10.00;99.90
23405;DHT22;11875;49.356;2.718;2022-11-20T00:44:24;10.10;99.90
23405;DHT22;11875;49.356;2.718;2022-11-20T00:46:50;10.00;99.90
23405;DHT22;11875;49.356;2.718;2022-11-20T00:49:16;10.00;99.90
23405;DHT22;11875;49.356;2.718;2022-11-20T00:51:41;10.00;99.90
23405;DHT22;11875;49.356;2.718;2022-11-20T00:54:07;9.90;99.90
23405;DHT22;11875;49.356;2.718;2022-11-20T00:56:32;10.00;99.90
23405;DHT22;11875;49.356;2.718;2022-11-20T00:59:00;10.00;99.90
23405;DHT22;11875;49.356;2.718;2022-11-20T01:01:26;10.00;99.90
23405;DHT22;11875;49.356;2.718;2022-11-20T01:03:56;10.00;99.90
23405;DHT22;11875;49.356;2.718;2022-11-20T01:06:24;10.00;99.90
23405;DHT22;11875;49.356;2.718;2022-11-20T01:08:52;9.80;99.90
23405;DHT22;11875;49.356;2.718;2022-11-20T01:11:20;9.90;99.90
23405;DHT22;11875;49.356;2.718;2022-11-20T01:13:47;9.90;99.90
23405;DHT22;11875;49.356;2.718;2022-11-20T01:16:24;9.90;99.90
23405;DHT22;11875;49.356;2.718;2022-11-20T01:18:52;9.90;99.90
23405;DHT22;11875;49.356;2.718;2022-11-20T01:21:21;9.90;99.90
23405;DHT22;11875;49.356;2.718;2022-11-20T01:23:48;9.90;99.90
23405;DHT22;11875;49.356;2.718;2022-11-20T01:26:20;9.90;99.90
23405;DHT22;11875;49.356;2.718;2022-11-20T01:28:46;9.90;99.90
23405;DHT22;11875;49.356;2.718;2022-11-20T01:31:19;9.70;99.90
23405;DHT22;11875;49.356;2.718;2022-11-20T01:33:46;9.70;99.90
23405;DHT22;11875;49.356;2.718;2022-11-20T01:36:12;9.70;99.90
23405;DHT22;11875;49.356;2.718;2022-11-20T01:38:38;9.60;99.90
23405;DHT22;11875;49.356;2.718;2022-11-20T01:41:05;9.70;99.90
23405;DHT22;11875;49.356;2.718;2022-11-20T01:43:31;9.60;99.90
23405;DHT22;11875;49.356;2.718;2022-11-20T01:48:58;9.50;99.90
23405;DHT22;11875;49.356;2.718;2022-11-20T01:51:42;9.50;99.90
23405;DHT22;11875;49.356;2.718;2022-11-20T01:54:15;9.40;99.90
23405;DHT22;11875;49.356;2.718;2022-11-20T01:56:43;9.30;99.90
23405;DHT22;11875;49.356;2.718;2022-11-20T01:59:10;9.20;99.90
23405;DHT22;11875;49.356;2.718;2022-11-20T02:01:37;9.30;99.90
23405;DHT22;11875;49.356;2.718;2022-11-20T02:04:04;9.30;99.90
23405;DHT22;11875;49.356;2.718;2022-11-20T02:07:00;9.20;99.90
23405;DHT22;11875;49.356;2.718;2022-11-20T02:09:26;9.10;99.90
23405;DHT22;11875;49.356;2.718;2022-11-20T02:11:53;9.10;99.90
23405;DHT22;11875;49.356;2.718;2022-11-20T02:14:20;9.20;99.90
23405;DHT22;11875;49.356;2.718;2022-11-20T02:16:48;9.10;99.90
23405;DHT22;11875;49.356;2.718;2022-11-20T02:19:35;9.00;99.90
23405;DHT22;11875;49.356;2.718;2022-11-20T02:22:14;8.90;99.90
23405;DHT22;11875;49.356;2.718;2022-11-20T02:24:43;8.90;99.90
23405;DHT22;11875;49.356;2.718;2022-11-20T02:27:14;8.90;99.90
23405;DHT22;11875;49.356;2.718;2022-11-20T02:32:31;8.90;99.90
23405;DHT22;11875;49.356;2.718;2022-11-20T02:34:58;8.90;99.90
23405;DHT22;11875;49.356;2.718;2022-11-20T02:37:33;8.80;99.90
23405;DHT22;11875;49.356;2.718;2022-11-20T02:40:00;8.60;99.90
23405;DHT22;11875;49.356;2.718;2022-11-20T02:42:25;8.60;99.90
23405;DHT22;11875;49.356;2.718;2022-11-20T02:44:51;8.50;99.90
23405;DHT22;11875;49.356;2.718;2022-11-20T02:47:16;8.50;99.90
23405;DHT22;11875;49.356;2.718;2022-11-20T02:49:42;8.40;99.90
23405;DHT22;11875;49.356;2.718;2022-11-20T02:52:07;8.30;99.90
23405;DHT22;11875;49.356;2.718;2022-11-20T02:54:33;8.30;99.90
23405;DHT22;11875;49.356;2.718;2022-11-20T02:56:58;8.30;99.90
23405;DHT22;11875;49.356;2.718;2022-11-20T02:59:24;8.30;99.90
23405;DHT22;11875;49.356;2.718;2022-11-20T03:01:50;8.30;99.90
23405;DHT22;11875;49.356;2.718;2022-11-20T03:04:15;8.40;99.90
23405;DHT22;11875;49.356;2.718;2022-11-20T03:06:41;8.20;99.90
23405;DHT22;11875;49.356;2.718;2022-11-20T03:09:06;8.10;99.90
23405;DHT22;11875;49.356;2.718;2022-11-20T03:11:32;8.00;99.90
23405;DHT22;11875;49.356;2.718;2022-11-20T03:14:02;7.90;99.90
23405;DHT22;11875;49.356;2.718;2022-11-20T03:16:27;7.80;99.90
23405;DHT22;11875;49.356;2.718;2022-11-20T03:18:53;7.80;99.90
23405;DHT22;11875;49.356;2.718;2022-11-20T03:21:19;7.70;99.90
23405;DHT22;11875;49.356;2.718;2022-11-20T03:23:44;7.80;99.90
23405;DHT22;11875;49.356;2.718;2022-11-20T03:28:37;7.60;99.90
23405;DHT22;11875;49.356;2.718;2022-11-20T03:31:13;7.70;99.90
23405;DHT22;11875;49.356;2.718;2022-11-20T03:33:41;7.80;99.90
23405;DHT22;11875;49.356;2.718;2022-11-20T03:36:09;7.80;99.90
23405;DHT22;11875;49.356;2.718;2022-11-20T03:38:36;7.80;99.90
23405;DHT22;11875;49.356;2.718;2022-11-20T03:41:09;7.80;99.90
23405;DHT22;11875;49.356;2.718;2022-11-20T03:43:35;7.90;99.90
23405;DHT22;11875;49.356;2.718;2022-11-20T03:46:02;8.00;99.90
23405;DHT22;11875;49.356;2.718;2022-11-20T03:48:27;8.10;99.90
23405;DHT22;11875;49.356;2.718;2022-11-20T03:50:54;8.10;99.90
23405;DHT22;11875;49.356;2.718;2022-11-20T03:53:31;8.10;99.90
23405;DHT22;11875;49.356;2.718;2022-11-20T03:55:57;8.10;99.90
23405;DHT22;11875;49.356;2.718;2022-11-20T03:58:22;8.20;99.90
23405;DHT22;11875;49.356;2.718;2022-11-20T04:00:48;8.10;99.90
23405;DHT22;11875;49.356;2.718;2022-11-20T04:03:13;8.10;99.90
23405;DHT22;11875;49.356;2.718;2022-11-20T04:05:39;8.10;99.90
23405;DHT22;11875;49.356;2.718;2022-11-20T04:08:05;8.20;99.90
23405;DHT22;11875;49.356;2.718;2022-11-20T04:10:30;8.20;99.90
23405;DHT22;11875;49.356;2.718;2022-11-20T04:12:56;8.20;99.90
23405;DHT22;11875;49.356;2.718;2022-11-20T04:15:21;8.30;99.90
23405;DHT22;11875;49.356;2.718;2022-11-20T04:17:47;8.30;99.90
23405;DHT22;11875;49.356;2.718;2022-11-20T04:20:13;8.10;99.90
23405;DHT22;11875;49.356;2.718;2022-11-20T04:22:38;8.00;99.90
23405;DHT22;11875;49.356;2.718;2022-11-20T04:25:04;8.00;99.90
23405;DHT22;11875;49.356;2.718;2022-11-20T04:27:30;8.00;99.90
23405;DHT22;11875;49.356;2.718;2022-11-20T04:29:56;8.00;99.90
23405;DHT22;11875;49.356;2.718;2022-11-20T04:32:22;7.90;99.90
23405;DHT22;11875;49.356;2.718;2022-11-20T04:34:47;7.90;99.90
23405;DHT22;11875;49.356;2.718;2022-11-20T04:37:13;8.00;99.90
23405;DHT22;11875;49.356;2.718;2022-11-20T04:39:38;7.90;99.90
23405;DHT22;11875;49.356;2.718;2022-11-20T04:42:04;8.00;99.90
23405;DHT22;11875;49.356;2.718;2022-11-20T04:44:48;8.00;99.90
23405;DHT22;11875;49.356;2.718;2022-11-20T04:47:14;8.00;99.90
23405;DHT22;11875;49.356;2.718;2022-11-20T04:49:39;8.00;99.90
23405;DHT22;11875;49.356;2.718;2022-11-20T04:52:05;8.00;99.90
23405;DHT22;11875;49.356;2.718;2022-11-20T04:54:31;8.00;99.90
23405;DHT22;11875;49.356;2.718;2022-11-20T04:56:56;8.00;99.90
23405;DHT22;11875;49.356;2.718;2022-11-20T04:59:22;8.00;99.90
23405;DHT22;11875;49.356;2.718;2022-11-20T05:01:48;7.90;99.90
23405;DHT22;11875;49.356;2.718;2022-11-20T05:04:13;7.80;99.90
23405;DHT22;11875;49.356;2.718;2022-11-20T05:06:39;7.70;99.90
23405;DHT22;11875;49.356;2.718;2022-11-20T05:09:04;7.80;99.90
23405;DHT22;11875;49.356;2.718;2022-11-20T05:11:31;7.80;99.90
23405;DHT22;11875;49.356;2.718;2022-11-20T05:13:58;7.80;99.90
23405;DHT22;11875;49.356;2.718;2022-11-20T05:16:24;7.90;99.90
23405;DHT22;11875;49.356;2.718;2022-11-20T05:18:51;7.90;99.90
23405;DHT22;11875;49.356;2.718;2022-11-20T05:21:17;7.80;99.90
23405;DHT22;11875;49.356;2.718;2022-11-20T05:23:44;7.90;99.90
23405;DHT22;11875;49.356;2.718;2022-11-20T05:26:19;7.90;99.90
23405;DHT22;11875;49.356;2.718;2022-11-20T05:28:45;7.90;99.90
23405;DHT22;11875;49.356;2.718;2022-11-20T05:31:19;8.10;99.90
23405;DHT22;11875;49.356;2.718;2022-11-20T05:33:45;8.10;99.90
23405;DHT22;11875;49.356;2.718;2022-11-20T05:36:12;8.10;99.90
23405;DHT22;11875;49.356;2.718;2022-11-20T05:38:39;8.10;99.90
23405;DHT22;11875;49.356;2.718;2022-11-20T05:41:15;8.10;99.90
23405;DHT22;11875;49.356;2.718;2022-11-20T05:43:43;8.20;99.90
23405;DHT22;11875;49.356;2.718;2022-11-20T05:46:11;8.30;99.90
23405;DHT22;11875;49.356;2.718;2022-11-20T05:48:38;8.30;99.90
23405;DHT22;11875;49.356;2.718;2022-11-20T05:51:06;8.40;99.90
23405;DHT22;11875;49.356;2.718;2022-11-20T05:53:33;8.40;99.90
23405;DHT22;11875;49.356;2.718;2022-11-20T05:56:13;8.40;99.90
23405;DHT22;11875;49.356;2.718;2022-11-20T05:58:40;8.40;99.90
23405;DHT22;11875;49.356;2.718;2022-11-20T06:01:17;8.30;99.90
23405;DHT22;11875;49.356;2.718;2022-11-20T06:03:43;8.20;99.90
23405;DHT22;11875;49.356;2.718;2022-11-20T06:06:13;8.20;99.90
23405;DHT22;11875;49.356;2.718;2022-11-20T06:08:39;8.20;99.90
23405;DHT22;11875;49.356;2.718;2022-11-20T06:11:06;8.20;99.90
23405;DHT22;11875;49.356;2.718;2022-11-20T06:13:32;8.30;99.90
23405;DHT22;11875;49.356;2.718;2022-11-20T06:15:58;8.30;99.90
23405;DHT22;11875;49.356;2.718;2022-11-20T06:18:29;8.40;99.90
23405;DHT22;11875;49.356;2.718;2022-11-20T06:21:21;8.50;99.90
23405;DHT22;11875;49.356;2.718;2022-11-20T06:23:48;8.50;99.90
23405;DHT22;11875;49.356;2.718;2022-11-20T06:26:20;8.50;99.90
23405;DHT22;11875;49.356;2.718;2022-11-20T06:28:46;8.50;99.90
23405;DHT22;11875;49.356;2.718;2022-11-20T06:31:14;8.50;99.90
23405;DHT22;11875;49.356;2.718;2022-11-20T06:33:41;8.40;99.90
23405;DHT22;11875;49.356;2.718;2022-11-20T06:36:07;8.40;99.90
23405;DHT22;11875;49.356;2.718;2022-11-20T06:38:32;8.40;99.90
23405;DHT22;11875;49.356;2.718;2022-11-20T06:40:58;8.40;99.90
23405;DHT22;11875;49.356;2.718;2022-11-20T06:43:24;8.40;99.90
23405;DHT22;11875;49.356;2.718;2022-11-20T06:45:54;8.30;99.90
23405;DHT22;11875;49.356;2.718;2022-11-20T06:48:20;8.30;99.90
23405;DHT22;11875;49.356;2.718;2022-11-20T06:50:46;8.20;99.90
23405;DHT22;11875;49.356;2.718;2022-11-20T06:53:11;8.20;99.90
23405;DHT22;11875;49.356;2.718;2022-11-20T06:55:37;8.00;99.90
23405;DHT22;11875;49.356;2.718;2022-11-20T06:58:06;7.90;99.90
23405;DHT22;11875;49.356;2.718;2022-11-20T07:00:32;7.90;99.90
23405;DHT22;11875;49.356;2.718;2022-11-20T07:02:58;7.80;99.90
23405;DHT22;11875;49.356;2.718;2022-11-20T07:05:23;7.80;99.90
23405;DHT22;11875;49.356;2.718;2022-11-20T07:07:49;7.80;99.90
23405;DHT22;11875;49.356;2.718;2022-11-20T07:10:14;7.90;99.90
23405;DHT22;11875;49.356;2.718;2022-11-20T07:12:40;8.00;99.90
23405;DHT22;11875;49.356;2.718;2022-11-20T07:15:06;8.10;99.90
23405;DHT22;11875;49.356;2.718;2022-11-20T07:17:32;8.10;99.90
23405;DHT22;11875;49.356;2.718;2022-11-20T07:19:57;8.10;99.90
23405;DHT22;11875;49.356;2.718;2022-11-20T07:22:23;8.00;99.90
23405;DHT22;11875;49.356;2.718;2022-11-20T07:24:48;8.00;99.90
23405;DHT22;11875;49.356;2.718;2022-11-20T07:27:14;7.70;99.90
23405;DHT22;11875;49.356;2.718;2022-11-20T07:29:40;7.60;99.90
23405;DHT22;11875;49.356;2.718;2022-11-20T07:32:05;7.40;99.90
23405;DHT22;11875;49.356;2.718;2022-11-20T07:34:31;7.20;99.90
23405;DHT22;11875;49.356;2.718;2022-11-20T07:36:56;7.20;99.90
23405;DHT22;11875;49.356;2.718;2022-11-20T07:39:22;7.30;99.90
23405;DHT22;11875;49.356;2.718;2022-11-20T07:41:48;7.20;99.90
23405;DHT22;11875;49.356;2.718;2022-11-20T07:44:13;7.20;99.90
23405;DHT22;11875;49.356;2.718;2022-11-20T07:46:39;7.30;99.90
23405;DHT22;11875;49.356;2.718;2022-11-20T07:49:04;7.30;99.90
23405;DHT22;11875;49.356;2.718;2022-11-20T07:51:30;7.20;99.90
23405;DHT22;11875;49.356;2.718;2022-11-20T07:53:55;7.20;99.90
23405;DHT22;11875;49.356;2.718;2022-11-20T07:56:21;7.20;99.90
23405;DHT22;11875;49.356;2.718;2022-11-20T07:58:46;7.20;99.90
23405;DHT22;11875;49.356;2.718;2022-11-20T08:01:12;7.00;99.90
23405;DHT22;11875;49.356;2.718;2022-11-20T08:03:38;7.00;99.90
23405;DHT22;11875;49.356;2.718;2022-11-20T08:06:04;7.00;99.90
23405;DHT22;11875;49.356;2.718;2022-11-20T08:08:30;6.90;99.90
23405;DHT22;11875;49.356;2.718;2022-11-20T08:10:58;6.90;99.90
23405;DHT22;11875;49.356;2.718;2022-11-20T08:13:42;6.90;99.90
23405;DHT22;11875;49.356;2.718;2022-11-20T08:16:27;7.00;99.90
23405;DHT22;11875;49.356;2.718;2022-11-20T08:18:53;7.30;99.90
23405;DHT22;11875;49.356;2.718;2022-11-20T08:21:19;7.80;99.90
23405;DHT22;11875;49.356;2.718;2022-11-20T08:23:44;8.20;99.90
23405;DHT22;11875;49.356;2.718;2022-11-20T08:26:10;8.20;99.90
23405;DHT22;11875;49.356;2.718;2022-11-20T08:28:35;8.10;99.90
23405;DHT22;11875;49.356;2.718;2022-11-20T08:31:02;8.00;99.90
23405;DHT22;11875;49.356;2.718;2022-11-20T08:33:29;8.00;99.90
23405;DHT22;11875;49.356;2.718;2022-11-20T08:36:02;7.80;99.90
23405;DHT22;11875;49.356;2.718;2022-11-20T08:38:29;7.90;99.90
23405;DHT22;11875;49.356;2.718;2022-11-20T08:41:02;7.90;99.90
23405;DHT22;11875;49.356;2.718;2022-11-20T08:43:47;7.90;99.90
23405;DHT22;11875;49.356;2.718;2022-11-20T08:46:12;7.80;99.90
23405;DHT22;11875;49.356;2.718;2022-11-20T08:48:38;7.90;99.90
23405;DHT22;11875;49.356;2.718;2022-11-20T08:51:04;8.00;99.90
23405;DHT22;11875;49.356;2.718;2022-11-20T08:53:29;7.80;99.90
23405;DHT22;11875;49.356;2.718;2022-11-20T08:55:56;7.80;99.90
23405;DHT22;11875;49.356;2.718;2022-11-20T08:58:22;7.90;99.90
23405;DHT22;11875;49.356;2.718;2022-11-20T09:00:48;7.80;99.90
23405;DHT22;11875;49.356;2.718;2022-11-20T09:03:13;8.00;99.90
23405;DHT22;11875;49.356;2.718;2022-11-20T09:05:39;8.10;99.90
23405;DHT22;11875;49.356;2.718;2022-11-20T09:08:05;8.10;99.90
23405;DHT22;11875;49.356;2.718;2022-11-20T09:10:30;8.00;99.90
23405;DHT22;11875;49.356;2.718;2022-11-20T09:12:58;7.90;99.90
23405;DHT22;11875;49.356;2.718;2022-11-20T09:15:24;8.00;99.90
23405;DHT22;11875;49.356;2.718;2022-11-20T09:17:53;7.90;99.90
23405;DHT22;11875;49.356;2.718;2022-11-20T09:20:19;7.90;99.90
23405;DHT22;11875;49.356;2.718;2022-11-20T09:22:45;7.90;99.90
23405;DHT22;11875;49.356;2.718;2022-11-20T09:25:10;8.00;99.90
23405;DHT22;11875;49.356;2.718;2022-11-20T09:27:36;8.00;99.90
23405;DHT22;11875;49.356;2.718;2022-11-20T09:30:03;8.00;99.90
23405;DHT22;11875;49.356;2.718;2022-11-20T09:32:29;8.00;99.90
23405;DHT22;11875;49.356;2.718;2022-11-20T09:34:54;8.00;99.90
23405;DHT22;11875;49.356;2.718;2022-11-20T09:37:20;8.00;99.90
23405;DHT22;11875;49.356;2.718;2022-11-20T09:39:46;8.00;99.90
23405;DHT22;11875;49.356;2.718;2022-11-20T09:45:21;8.00;99.90
23405;DHT22;11875;49.356;2.718;2022-11-20T09:47:51;8.00;99.90
23405;DHT22;11875;49.356;2.718;2022-11-20T09:55:19;8.00;99.90
23405;DHT22;11875;49.356;2.718;2022-11-20T09:57:47;8.10;99.90
23405;DHT22;11875;49.356;2.718;2022-11-20T10:00:14;8.10;99.90
23405;DHT22;11875;49.356;2.718;2022-11-20T10:02:47;8.30;99.90
23405;DHT22;11875;49.356;2.718;2022-11-20T10:05:18;8.30;99.90
23405;DHT22;11875;49.356;2.718;2022-11-20T10:10:41;8.10;99.90
23405;DHT22;11875;49.356;2.718;2022-11-20T10:21:57;8.30;99.90
23405;DHT22;11875;49.356;2.718;2022-11-20T10:30:18;8.10;99.90
23405;DHT22;11875;49.356;2.718;2022-11-20T10:32:51;8.10;99.90
23405;DHT22;11875;49.356;2.718;2022-11-20T10:35:31;8.00;99.90
23405;DHT22;11875;49.356;2.718;2022-11-20T10:38:21;8.00;99.90
23405;DHT22;11875;49.356;2.718;2022-11-20T10:40:57;7.90;99.90
23405;DHT22;11875;49.356;2.718;2022-11-20T10:43:44;8.00;99.90
23405;DHT22;11875;49.356;2.718;2022-11-20T10:46:20;8.00;99.90
23405;DHT22;11875;49.356;2.718;2022-11-20T10:48:50;8.00;99.90
23405;DHT22;11875;49.356;2.718;2022-11-20T10:51:40;8.00;99.90
23405;DHT22;11875;49.356;2.718;2022-11-20T10:54:33;7.90;99.90
23405;DHT22;11875;49.356;2.718;2022-11-20T11:02:44;7.80;99.90
23405;DHT22;11875;49.356;2.718;2022-11-20T11:05:38;7.80;99.90
23405;DHT22;11875;49.356;2.718;2022-11-20T11:08:12;7.90;99.90
23405;DHT22;11875;49.356;2.718;2022-11-20T11:15:46;7.70;99.90
23405;DHT22;11875;49.356;2.718;2022-11-20T11:18:25;7.70;99.90
23405;DHT22;11875;49.356;2.718;2022-11-20T11:20:51;7.80;99.90
23405;DHT22;11875;49.356;2.718;2022-11-20T11:25:59;8.00;99.90
23405;DHT22;11875;49.356;2.718;2022-11-20T11:28:26;8.10;99.90
23405;DHT22;11875;49.356;2.718;2022-11-20T11:30:53;8.10;99.90
23405;DHT22;11875;49.356;2.718;2022-11-20T11:35:58;8.10;99.90
23405;DHT22;11875;49.356;2.718;2022-11-20T11:38:32;8.20;99.90
23405;DHT22;11875;49.356;2.718;2022-11-20T11:40:59;8.20;99.90
23405;DHT22;11875;49.356;2.718;2022-11-20T11:43:29;8.30;99.90
23405;DHT22;11875;49.356;2.718;2022-11-20T11:46:25;8.30;99.90
23405;DHT22;11875;49.356;2.718;2022-11-20T11:54:45;8.30;99.90
23405;DHT22;11875;49.356;2.718;2022-11-20T12:05:42;8.50;99.90
23405;DHT22;11875;49.356;2.718;2022-11-20T12:08:31;8.50;99.90
23405;DHT22;11875;49.356;2.718;2022-11-20T12:13:52;8.60;99.90
23405;DHT22;11875;49.356;2.718;2022-11-20T12:16:20;8.60;99.90
23405;DHT22;11875;49.356;2.718;2022-11-20T12:18:48;8.70;99.90
23405;DHT22;11875;49.356;2.718;2022-11-20T12:32:04;8.70;99.90
23405;DHT22;11875;49.356;2.718;2022-11-20T12:43:41;8.80;99.90
23405;DHT22;11875;49.356;2.718;2022-11-20T12:46:46;8.70;99.90
23405;DHT22;11875;49.356;2.718;2022-11-20T12:57:36;8.80;99.90
23405;DHT22;11875;49.356;2.718;2022-11-20T13:00:11;9.00;99.90
23405;DHT22;11875;49.356;2.718;2022-11-20T13:08:11;9.30;99.90
23405;DHT22;11875;49.356;2.718;2022-11-20T13:11:07;9.40;99.90
23405;DHT22;11875;49.356;2.718;2022-11-20T13:18:50;9.50;99.90
23405;DHT22;11875;49.356;2.718;2022-11-20T13:21:22;9.60;99.90
23405;DHT22;11875;49.356;2.718;2022-11-20T13:23:48;9.50;99.90
23405;DHT22;11875;49.356;2.718;2022-11-20T13:26:22;9.50;99.90
23405;DHT22;11875;49.356;2.718;2022-11-20T13:29:20;9.70;99.90
23405;DHT22;11875;49.356;2.718;2022-11-20T13:31:48;9.60;99.90
23405;DHT22;11875;49.356;2.718;2022-11-20T13:34:25;9.70;99.90
23405;DHT22;11875;49.356;2.718;2022-11-20T13:36:53;9.60;99.90
23405;DHT22;11875;49.356;2.718;2022-11-20T13:39:36;9.60;99.90
23405;DHT22;11875;49.356;2.718;2022-11-20T13:42:03;9.70;99.90
23405;DHT22;11875;49.356;2.718;2022-11-20T13:44:54;9.80;99.90
23405;DHT22;11875;49.356;2.718;2022-11-20T13:47:25;9.70;99.90
23405;DHT22;11875;49.356;2.718;2022-11-20T13:49:52;9.70;99.90
23405;DHT22;11875;49.356;2.718;2022-11-20T13:58:10;9.70;99.90
23405;DHT22;11875;49.356;2.718;2022-11-20T14:01:16;9.80;99.90
23405;DHT22;11875;49.356;2.718;2022-11-20T14:03:43;9.90;99.90
23405;DHT22;11875;49.356;2.718;2022-11-20T14:06:19;10.00;99.90
23405;DHT22;11875;49.356;2.718;2022-11-20T14:08:48;10.10;99.90
23405;DHT22;11875;49.356;2.718;2022-11-20T14:11:19;10.10;99.90
23405;DHT22;11875;49.356;2.718;2022-11-20T14:14:00;10.10;99.90
23405;DHT22;11875;49.356;2.718;2022-11-20T14:16:28;10.10;99.90
23405;DHT22;11875;49.356;2.718;2022-11-20T14:18:54;10.10;99.90
23405;DHT22;11875;49.356;2.718;2022-11-20T14:21:28;10.10;99.90
23405;DHT22;11875;49.356;2.718;2022-11-20T14:24:21;10.00;99.90
23405;DHT22;11875;49.356;2.718;2022-11-20T14:26:48;10.00;99.90
23405;DHT22;11875;49.356;2.718;2022-11-20T14:29:19;10.10;99.90
23405;DHT22;11875;49.356;2.718;2022-11-20T14:31:47;10.20;99.90
23405;DHT22;11875;49.356;2.718;2022-11-20T14:34:18;10.10;99.90
23405;DHT22;11875;49.356;2.718;2022-11-20T14:36:45;10.20;99.90
23405;DHT22;11875;49.356;2.718;2022-11-20T14:39:19;10.20;99.90
23405;DHT22;11875;49.356;2.718;2022-11-20T14:41:51;10.30;99.90
23405;DHT22;11875;49.356;2.718;2022-11-20T14:44:17;10.40;99.90
23405;DHT22;11875;49.356;2.718;2022-11-20T14:46:43;10.30;99.90
23405;DHT22;11875;49.356;2.718;2022-11-20T14:49:10;10.20;99.90
23405;DHT22;11875;49.356;2.718;2022-11-20T14:51:38;10.20;99.90
23405;DHT22;11875;49.356;2.718;2022-11-20T14:54:17;10.20;99.90
23405;DHT22;11875;49.356;2.718;2022-11-20T14:57:00;10.30;99.90
23405;DHT22;11875;49.356;2.718;2022-11-20T14:59:33;10.30;99.90
23405;DHT22;11875;49.356;2.718;2022-11-20T15:02:12;10.40;99.90
23405;DHT22;11875;49.356;2.718;2022-11-20T15:04:57;10.60;99.90
23405;DHT22;11875;49.356;2.718;2022-11-20T15:07:30;10.60;99.90
23405;DHT22;11875;49.356;2.718;2022-11-20T15:10:13;10.70;99.90
23405;DHT22;11875;49.356;2.718;2022-11-20T15:12:52;10.70;99.90
23405;DHT22;11875;49.356;2.718;2022-11-20T15:18:37;10.80;99.90
23405;DHT22;11875;49.356;2.718;2022-11-20T15:21:08;10.60;99.90
23405;DHT22;11875;49.356;2.718;2022-11-20T15:23:34;10.60;99.90
23405;DHT22;11875;49.356;2.718;2022-11-20T15:26:00;10.70;99.90
23405;DHT22;11875;49.356;2.718;2022-11-20T15:28:30;10.60;99.90
23405;DHT22;11875;49.356;2.718;2022-11-20T15:30:56;10.60;99.90
23405;DHT22;11875;49.356;2.718;2022-11-20T15:33:22;10.50;99.90
23405;DHT22;11875;49.356;2.718;2022-11-20T15:35:47;10.50;99.90
23405;DHT22;11875;49.356;2.718;2022-11-20T15:38:13;10.60;99.90
23405;DHT22;11875;49.356;2.718;2022-11-20T15:40:39;10.40;99.90
23405;DHT22;11875;49.356;2.718;2022-11-20T15:43:04;10.50;99.90
23405;DHT22;11875;49.356;2.718;2022-11-20T15:45:48;10.60;99.90
23405;DHT22;11875;49.356;2.718;2022-11-20T15:48:24;10.70;99.90
23405;DHT22;11875;49.356;2.718;2022-11-20T15:50:54;10.60;99.90
23405;DHT22;11875;49.356;2.718;2022-11-20T15:53:22;10.70;99.90
23405;DHT22;11875;49.356;2.718;2022-11-20T15:55:47;10.70;99.90
23405;DHT22;11875;49.356;2.718;2022-11-20T15:58:13;10.60;99.90
23405;DHT22;11875;49.356;2.718;2022-11-20T16:00:39;10.70;99.90
23405;DHT22;11875;49.356;2.718;2022-11-20T16:03:04;10.80;99.90
23405;DHT22;11875;49.356;2.718;2022-11-20T16:05:30;10.80;99.90
23405;DHT22;11875;49.356;2.718;2022-11-20T16:07:56;10.70;99.90
23405;DHT22;11875;49.356;2.718;2022-11-20T16:10:23;10.60;99.90
23405;DHT22;11875;49.356;2.718;2022-11-20T16:12:49;10.60;99.90
23405;DHT22;11875;49.356;2.718;2022-11-20T16:15:33;10.50;99.90
23405;DHT22;11875;49.356;2.718;2022-11-20T16:18:16;10.50;99.90
23405;DHT22;11875;49.356;2.718;2022-11-20T16:20:42;10.40;99.90
23405;DHT22;11875;49.356;2.718;2022-11-20T16:23:08;10.50;99.90
23405;DHT22;11875;49.356;2.718;2022-11-20T16:25:34;10.40;99.90
23405;DHT22;11875;49.356;2.718;2022-11-20T16:27:59;10.40;99.90
23405;DHT22;11875;49.356;2.718;2022-11-20T16:30:26;10.40;99.90
23405;DHT22;11875;49.356;2.718;2022-11-20T16:32:51;10.30;99.90
23405;DHT22;11875;49.356;2.718;2022-11-20T16:35:17;10.30;99.90
23405;DHT22;11875;49.356;2.718;2022-11-20T16:37:42;10.30;99.90
23405;DHT22;11875;49.356;2.718;2022-11-20T16:40:09;10.40;99.90
23405;DHT22;11875;49.356;2.718;2022-11-20T16:42:36;10.30;99.90
23405;DHT22;11875;49.356;2.718;2022-11-20T16:45:03;10.20;99.90
23405;DHT22;11875;49.356;2.718;2022-11-20T16:47:33;10.20;99.90
23405;DHT22;11875;49.356;2.718;2022-11-20T16:49:59;10.10;99.90
23405;DHT22;11875;49.356;2.718;2022-11-20T16:52:24;10.20;99.90
23405;DHT22;11875;49.356;2.718;2022-11-20T16:54:50;10.30;99.90
23405;DHT22;11875;49.356;2.718;2022-11-20T16:57:15;10.30;99.90
23405;DHT22;11875;49.356;2.718;2022-11-20T16:59:41;10.10;99.90
23405;DHT22;11875;49.356;2.718;2022-11-20T17:02:08;10.20;99.90
23405;DHT22;11875;49.356;2.718;2022-11-20T17:04:35;10.20;99.90
23405;DHT22;11875;49.356;2.718;2022-11-20T17:07:00;10.10;99.90
23405;DHT22;11875;49.356;2.718;2022-11-20T17:09:27;10.00;99.90
23405;DHT22;11875;49.356;2.718;2022-11-20T17:11:53;9.90;99.90
23405;DHT22;11875;49.356;2.718;2022-11-20T17:14:19;9.80;99.90
23405;DHT22;11875;49.356;2.718;2022-11-20T17:16:44;9.70;99.90
23405;DHT22;11875;49.356;2.718;2022-11-20T17:19:11;9.40;99.90
23405;DHT22;11875;49.356;2.718;2022-11-20T17:21:37;9.40;99.90
23405;DHT22;11875;49.356;2.718;2022-11-20T17:24:05;9.40;99.90
23405;DHT22;11875;49.356;2.718;2022-11-20T17:26:32;9.40;99.90
23405;DHT22;11875;49.356;2.718;2022-11-20T17:29:01;9.40;99.90
23405;DHT22;11875;49.356;2.718;2022-11-20T17:31:28;9.40;99.90
23405;DHT22;11875;49.356;2.718;2022-11-20T17:33:54;9.40;99.90
23405;DHT22;11875;49.356;2.718;2022-11-20T17:36:20;9.40;99.90
23405;DHT22;11875;49.356;2.718;2022-11-20T17:38:46;9.40;99.90
23405;DHT22;11875;49.356;2.718;2022-11-20T17:41:20;9.60;99.90
23405;DHT22;11875;49.356;2.718;2022-11-20T17:43:47;9.40;99.90
23405;DHT22;11875;49.356;2.718;2022-11-20T17:46:16;9.50;99.90
23405;DHT22;11875;49.356;2.718;2022-11-20T17:48:43;9.50;99.90